Time;durP1;ratioP1;P1;durP2;ratioP2;P2;SDS_P1;SDS_P2;PMS_P1;PMS_P2;Temp;Humidity;BMP_temperature;BMP_pressure;BME280_temperature;BME280_humidity;BME280_pressure;Samples;Min_cycle;Max_cycle;Signal;HPM_P1;HPM_P2
2023/08/15 00:01:29;;;;;;;12.25;4.13;;;18.50;99.90;;;;;;5057869;28;20064;-70
2023/08/15 00:03:55;;;;;;;11.27;4.22;;;18.50;99.90;;;;;;5066124;28;265060;-70
2023/08/15 00:06:21;;;;;;;10.43;4.20;;;18.50;99.90;;;;;;5060624;28;20069;-72
2023/08/15 00:08:53;;;;;;;13.50;4.60;;;18.50;99.90;;;;;;5044436;28;230061;-70
2023/08/15 00:11:23;;;;;;;12.25;4.80;;;18.40;99.90;;;;;;5068280;28;20064;-70
2023/08/15 00:13:50;;;;;;;10.48;4.63;;;18.40;99.90;;;;;;5041542;28;151344;-70
2023/08/15 00:16:16;;;;;;;13.18;4.65;;;18.40;99.90;;;;;;5063714;28;20041;-70
2023/08/15 00:18:42;;;;;;;13.07;4.78;;;18.30;99.90;;;;;;5059899;28;278425;-70
2023/08/15 00:21:08;;;;;;;11.70;4.45;;;18.30;99.90;;;;;;5068416;28;20055;-70
2023/08/15 00:23:34;;;;;;;10.73;4.72;;;18.20;99.90;;;;;;5066253;28;273994;-69
2023/08/15 00:26:01;;;;;;;15.38;5.75;;;18.20;99.90;;;;;;5061490;28;20155;-69
2023/08/15 00:28:27;;;;;;;12.48;5.18;;;18.20;99.90;;;;;;5064211;28;262559;-69
2023/08/15 00:30:53;;;;;;;12.32;4.53;;;18.20;99.90;;;;;;5066971;28;20052;-69
2023/08/15 00:33:19;;;;;;;10.95;4.65;;;18.20;99.90;;;;;;5061379;28;264220;-70
2023/08/15 00:35:45;;;;;;;12.32;4.75;;;18.10;99.90;;;;;;5066458;28;20399;-68
2023/08/15 00:38:11;;;;;;;10.82;4.85;;;18.10;99.90;;;;;;5060808;28;268084;-68
2023/08/15 00:40:39;;;;;;;11.48;4.80;;;18.10;99.90;;;;;;5069312;28;20059;-69
2023/08/15 00:43:05;;;;;;;10.48;5.00;;;18.10;99.90;;;;;;5061117;28;274730;-69
2023/08/15 00:45:34;;;;;;;14.10;4.95;;;18.10;99.90;;;;;;5065013;28;20049;-69
2023/08/15 00:48:00;;;;;;;17.20;7.15;;;18.10;99.90;;;;;;5059226;28;264830;-70
2023/08/15 00:50:26;;;;;;;14.88;7.13;;;18.10;99.90;;;;;;5064862;28;20044;-71
2023/08/15 00:52:53;;;;;;;16.55;6.00;;;18.10;99.90;;;;;;5006881;28;246124;-69
2023/08/15 00:55:20;;;;;;;15.30;6.68;;;18.10;99.90;;;;;;5067562;28;20048;-69
2023/08/15 00:57:46;;;;;;;16.60;5.40;;;18.10;99.90;;;;;;5055760;28;262323;-69
2023/08/15 01:00:13;;;;;;;15.75;6.35;;;18.10;99.90;;;;;;5062000;28;20550;-69
2023/08/15 01:02:40;;;;;;;11.70;5.43;;;18.10;99.90;;;;;;5045941;28;267141;-68
2023/08/15 01:05:07;;;;;;;15.52;7.30;;;18.10;99.90;;;;;;5065873;28;20044;-67
2023/08/15 01:07:33;;;;;;;17.88;6.32;;;18.10;99.90;;;;;;5050729;28;273604;-69
2023/08/15 01:09:59;;;;;;;18.23;7.03;;;18.10;99.90;;;;;;5073338;28;20078;-69
2023/08/15 01:12:42;;;;;;;14.27;6.65;;;18.10;99.90;;;;;;5056023;28;27716;-69
2023/08/15 01:15:14;;;;;;;18.40;6.97;;;18.10;99.90;;;;;;5062742;28;20408;-69
2023/08/15 01:17:48;;;;;;;15.65;6.90;;;18.10;99.90;;;;;;5048698;28;255381;-70
2023/08/15 01:20:20;;;;;;;17.00;7.13;;;18.10;99.90;;;;;;5073419;28;20064;-70
2023/08/15 01:22:49;;;;;;;13.93;6.82;;;18.10;99.90;;;;;;5048882;28;224824;-68
2023/08/15 01:25:16;;;;;;;14.63;6.65;;;18.10;99.90;;;;;;5047248;28;20507;-68
2023/08/15 01:27:42;;;;;;;15.63;6.72;;;18.10;99.90;;;;;;5039991;28;215728;-68
2023/08/15 01:30:08;;;;;;;15.13;6.90;;;18.10;99.90;;;;;;5059487;28;20424;-68
2023/08/15 01:32:45;;;;;;;16.95;6.68;;;18.00;99.90;;;;;;5049329;28;267019;-68
2023/08/15 01:35:32;;;;;;;15.60;7.32;;;18.00;99.90;;;;;;5065411;28;20060;-68
2023/08/15 01:38:02;;;;;;;18.13;7.57;;;18.00;99.90;;;;;;5055399;28;262616;-69
2023/08/15 01:40:32;;;;;;;15.88;6.97;;;18.00;99.90;;;;;;5068124;28;20048;-68
2023/08/15 01:43:00;;;;;;;17.55;7.57;;;18.00;99.90;;;;;;5053746;28;256720;-69
2023/08/15 01:45:28;;;;;;;14.57;7.03;;;17.90;99.90;;;;;;5068288;28;20059;-68
2023/08/15 01:47:54;;;;;;;15.82;6.95;;;18.00;99.90;;;;;;5051638;28;262432;-68
2023/08/15 01:50:20;;;;;;;14.70;7.50;;;18.00;99.90;;;;;;5068978;28;20454;-69
2023/08/15 01:52:47;;;;;;;15.68;7.15;;;17.90;99.90;;;;;;5033953;28;260691;-69
2023/08/15 01:55:13;;;;;;;19.02;7.25;;;18.00;99.90;;;;;;5067255;28;20059;-70
2023/08/15 01:57:39;;;;;;;16.05;7.40;;;17.90;99.90;;;;;;5052392;28;250295;-69
2023/08/15 02:00:06;;;;;;;18.58;7.78;;;18.00;99.90;;;;;;5060473;28;20064;-72
2023/08/15 02:02:32;;;;;;;17.90;7.15;;;17.90;99.90;;;;;;5042649;28;282886;-69
2023/08/15 02:05:01;;;;;;;15.65;6.85;;;17.90;99.90;;;;;;5073921;28;20052;-69
2023/08/15 02:07:28;;;;;;;16.33;6.93;;;17.90;99.90;;;;;;5050373;28;252555;-70
2023/08/15 02:09:54;;;;;;;13.77;7.10;;;17.90;99.90;;;;;;5072496;28;20053;-69
2023/08/15 02:12:20;;;;;;;15.93;6.88;;;17.90;99.90;;;;;;5051802;28;276158;-70
2023/08/15 02:14:46;;;;;;;16.52;7.32;;;17.90;99.90;;;;;;5065354;28;20545;-69
2023/08/15 02:17:13;;;;;;;17.83;7.97;;;17.90;99.90;;;;;;5048677;28;272479;-70
2023/08/15 02:19:39;;;;;;;15.80;7.35;;;18.00;99.90;;;;;;5073746;28;20059;-70
2023/08/15 02:22:05;;;;;;;15.93;7.93;;;18.00;99.90;;;;;;5052029;28;260264;-70
2023/08/15 02:24:31;;;;;;;17.27;8.23;;;18.00;99.90;;;;;;5076599;28;20115;-70
2023/08/15 02:26:57;;;;;;;16.50;8.10;;;18.00;99.90;;;;;;5047210;28;275013;-70
2023/08/15 02:29:23;;;;;;;16.75;8.65;;;18.00;99.90;;;;;;5061685;28;20052;-70
2023/08/15 02:31:49;;;;;;;13.80;8.00;;;18.00;99.90;;;;;;5052298;28;267529;-70
2023/08/15 02:34:17;;;;;;;16.38;8.50;;;18.10;99.90;;;;;;5083477;28;20048;-69
2023/08/15 02:36:49;;;;;;;20.05;8.70;;;18.10;99.90;;;;;;5047169;28;275663;-69
2023/08/15 02:39:18;;;;;;;18.98;9.57;;;18.10;99.90;;;;;;5069432;28;20053;-69
2023/08/15 02:41:44;;;;;;;20.00;9.07;;;18.10;99.90;;;;;;5051090;28;253495;-70
2023/08/15 02:44:10;;;;;;;17.38;8.98;;;18.10;99.90;;;;;;5080535;28;20057;-69
2023/08/15 02:46:36;;;;;;;15.43;8.48;;;18.10;99.90;;;;;;5056085;28;278002;-69
2023/08/15 02:49:03;;;;;;;21.35;9.88;;;18.20;99.90;;;;;;5077317;28;20392;-69
2023/08/15 02:51:30;;;;;;;20.73;9.00;;;18.20;99.90;;;;;;5066201;28;20407;-69
2023/08/15 02:53:56;;;;;;;17.00;9.48;;;18.20;99.90;;;;;;5044608;28;256029;-69
2023/08/15 02:56:22;;;;;;;18.15;10.20;;;18.20;99.90;;;;;;5070444;28;20045;-67
2023/08/15 02:58:48;;;;;;;23.20;10.50;;;18.20;99.90;;;;;;5045212;28;75171;-69
2023/08/15 03:01:14;;;;;;;19.00;11.00;;;18.20;99.90;;;;;;5059385;28;20061;-70
2023/08/15 03:03:40;;;;;;;18.17;11.32;;;18.20;99.90;;;;;;5063824;28;263404;-70
2023/08/15 03:06:06;;;;;;;22.02;11.93;;;18.30;99.90;;;;;;5069927;28;20178;-71
2023/08/15 03:08:32;;;;;;;22.75;12.40;;;18.30;99.90;;;;;;5061074;28;266916;-70
2023/08/15 03:10:59;;;;;;;23.58;12.32;;;18.40;99.90;;;;;;5067057;28;20048;-70
2023/08/15 03:13:25;;;;;;;23.83;13.00;;;18.40;99.90;;;;;;5057354;28;260369;-69
2023/08/15 03:15:52;;;;;;;22.05;13.50;;;18.40;99.90;;;;;;5064372;28;20052;-69
2023/08/15 03:18:19;;;;;;;20.77;13.38;;;18.50;99.90;;;;;;5065705;28;256599;-69
2023/08/15 03:21:04;;;;;;;18.52;12.55;;;18.50;99.90;;;;;;5073133;28;20047;-70
2023/08/15 03:23:30;;;;;;;25.85;14.52;;;18.50;99.90;;;;;;5066384;28;266116;-72
2023/08/15 03:25:57;;;;;;;21.55;13.32;;;18.60;99.90;;;;;;5063366;28;20053;-70
2023/08/15 03:28:24;;;;;;;23.48;13.43;;;18.50;99.90;;;;;;5062086;28;20040;-69
2023/08/15 03:30:51;;;;;;;20.40;13.77;;;18.50;99.90;;;;;;5068984;28;20056;-69
2023/08/15 03:33:17;;;;;;;19.40;13.55;;;18.40;99.90;;;;;;5059675;28;262776;-70
2023/08/15 03:35:45;;;;;;;21.05;13.63;;;18.40;99.90;;;;;;5068394;28;20048;-70
2023/08/15 03:38:20;;;;;;;20.42;13.50;;;18.40;99.90;;;;;;5063144;28;267416;-70
2023/08/15 03:40:48;;;;;;;19.23;13.65;;;18.30;99.90;;;;;;5067405;28;20055;-69
2023/08/15 03:43:14;;;;;;;27.38;15.20;;;18.20;99.90;;;;;;5039347;28;248678;-69
2023/08/15 03:45:40;;;;;;;22.13;14.88;;;18.20;99.90;;;;;;5049149;28;20434;-69
2023/08/15 03:48:08;;;;;;;24.52;15.75;;;18.20;99.90;;;;;;5054132;28;265796;-69
2023/08/15 03:50:35;;;;;;;18.67;13.85;;;18.20;99.90;;;;;;5070697;28;20052;-70
2023/08/15 03:53:01;;;;;;;26.50;14.98;;;18.20;99.90;;;;;;5031585;28;277241;-70
2023/08/15 03:55:31;;;;;;;24.70;14.93;;;18.20;99.90;;;;;;5062136;28;20055;-70
2023/08/15 03:57:57;;;;;;;22.50;13.95;;;18.10;99.90;;;;;;5056459;28;268451;-70
2023/08/15 04:00:24;;;;;;;24.33;15.35;;;18.20;99.90;;;;;;5069760;28;20063;-71
2023/08/15 04:02:51;;;;;;;23.90;14.70;;;18.20;99.90;;;;;;5052339;28;273801;-70
2023/08/15 04:05:19;;;;;;;19.75;13.98;;;18.20;99.90;;;;;;5066475;28;20053;-71
2023/08/15 04:07:46;;;;;;;22.45;14.20;;;18.20;99.90;;;;;;5053393;28;264915;-71
2023/08/15 04:10:13;;;;;;;22.45;14.95;;;18.20;99.90;;;;;;5073948;28;20074;-69
2023/08/15 04:12:40;;;;;;;27.23;15.57;;;18.20;99.90;;;;;;5053441;28;265749;-69
2023/08/15 04:15:06;;;;;;;24.08;15.05;;;18.20;99.90;;;;;;5066329;28;20048;-70
2023/08/15 04:17:32;;;;;;;22.75;14.15;;;18.20;99.90;;;;;;5061954;28;20047;-69
2023/08/15 04:19:58;;;;;;;21.50;13.93;;;18.20;99.90;;;;;;5068038;28;20048;-69
2023/08/15 04:22:24;;;;;;;22.38;14.93;;;18.20;99.90;;;;;;5055171;28;274555;-70
2023/08/15 04:24:50;;;;;;;23.05;15.85;;;18.20;99.90;;;;;;5073503;28;20059;-70
2023/08/15 04:27:17;;;;;;;20.73;14.85;;;18.20;99.90;;;;;;5054525;28;270025;-70
2023/08/15 04:29:43;;;;;;;24.85;14.52;;;18.10;99.90;;;;;;5079251;28;20049;-69
2023/08/15 04:32:09;;;;;;;20.13;14.38;;;18.10;99.90;;;;;;5050826;28;267752;-70
2023/08/15 04:34:35;;;;;;;21.45;14.75;;;18.10;99.90;;;;;;5077564;28;20054;-70
2023/08/15 04:37:01;;;;;;;21.42;14.88;;;18.10;99.90;;;;;;5054696;28;64808;-69
2023/08/15 04:39:27;;;;;;;21.35;14.80;;;18.10;99.90;;;;;;5056903;28;20411;-69
2023/08/15 04:41:53;;;;;;;22.27;16.50;;;18.00;99.90;;;;;;5034041;28;267063;-69
2023/08/15 04:44:19;;;;;;;22.48;16.23;;;18.10;99.90;;;;;;5077133;28;20044;-70
2023/08/15 04:46:45;;;;;;;26.42;15.80;;;18.10;99.90;;;;;;5050386;28;260696;-70
2023/08/15 04:49:11;;;;;;;23.75;14.30;;;18.10;99.90;;;;;;5063672;28;20057;-69
2023/08/15 04:51:38;;;;;;;21.08;13.75;;;18.10;99.90;;;;;;5049609;28;267591;-70
2023/08/15 04:54:04;;;;;;;22.38;13.55;;;18.10;99.90;;;;;;5052132;28;20045;-69
2023/08/15 04:56:30;;;;;;;24.92;13.70;;;18.10;99.90;;;;;;5066941;28;20523;-70
2023/08/15 04:58:56;;;;;;;22.95;13.43;;;18.10;99.90;;;;;;5048457;28;266091;-70
2023/08/15 05:01:23;;;;;;;20.25;12.75;;;18.10;99.90;;;;;;5062493;28;20053;-70
2023/08/15 05:03:49;;;;;;;22.95;13.52;;;18.10;99.90;;;;;;5055433;28;268366;-71
2023/08/15 05:06:15;;;;;;;20.45;13.38;;;18.10;99.90;;;;;;5063504;28;20396;-69
2023/08/15 05:08:41;;;;;;;21.00;13.38;;;18.20;99.90;;;;;;5053629;28;253653;-70
2023/08/15 05:11:08;;;;;;;22.13;13.68;;;18.20;99.90;;;;;;5083250;28;20589;-72
2023/08/15 05:13:34;;;;;;;19.35;12.98;;;18.20;99.90;;;;;;5051538;28;269213;-70
2023/08/15 05:16:00;;;;;;;25.33;11.77;;;18.20;99.90;;;;;;5062820;28;20048;-68
2023/08/15 05:18:26;;;;;;;19.15;11.45;;;18.20;99.90;;;;;;5052106;28;265351;-69
2023/08/15 05:20:52;;;;;;;22.70;11.63;;;18.30;99.90;;;;;;5066339;28;20060;-71
2023/08/15 05:23:19;;;;;;;20.27;11.35;;;18.30;99.90;;;;;;5050083;28;224777;-70
2023/08/15 05:25:46;;;;;;;18.17;10.90;;;18.30;99.90;;;;;;5060296;28;20284;-70
2023/08/15 05:28:12;;;;;;;19.63;11.10;;;18.30;99.90;;;;;;5055058;28;104526;-70
2023/08/15 05:30:39;;;;;;;17.83;10.80;;;18.30;99.90;;;;;;5068121;28;20053;-69
2023/08/15 05:33:05;;;;;;;21.13;10.77;;;18.30;99.90;;;;;;5060177;28;268322;-70
2023/08/15 05:35:31;;;;;;;18.67;10.57;;;18.40;99.90;;;;;;5068125;28;20059;-71
2023/08/15 05:37:58;;;;;;;20.98;10.32;;;18.40;99.90;;;;;;5055473;28;150635;-70
2023/08/15 05:40:25;;;;;;;16.08;9.60;;;18.40;99.90;;;;;;5067582;28;20055;-70
2023/08/15 05:42:51;;;;;;;17.50;9.73;;;18.40;99.90;;;;;;5052257;28;255079;-70
2023/08/15 05:45:18;;;;;;;17.10;9.65;;;18.40;99.90;;;;;;5067376;28;20048;-70
2023/08/15 05:47:44;;;;;;;22.27;10.15;;;18.40;99.90;;;;;;5052534;28;266850;-71
2023/08/15 05:50:10;;;;;;;20.85;10.38;;;18.50;99.90;;;;;;5069344;28;20049;-70
2023/08/15 05:52:36;;;;;;;19.88;9.80;;;18.50;99.90;;;;;;5031052;28;272592;-69
2023/08/15 05:55:02;;;;;;;20.70;9.43;;;18.50;99.90;;;;;;5066994;28;20056;-70
2023/08/15 05:57:28;;;;;;;15.55;9.35;;;18.50;99.90;;;;;;5052079;28;271229;-69
2023/08/15 05:59:54;;;;;;;16.95;9.30;;;18.50;99.90;;;;;;5064210;28;20429;-70
2023/08/15 06:02:20;;;;;;;15.38;9.02;;;18.50;99.90;;;;;;5049115;28;256429;-70
2023/08/15 06:04:46;;;;;;;17.55;8.75;;;18.40;99.90;;;;;;5074806;28;20060;-70
2023/08/15 06:07:13;;;;;;;19.10;8.95;;;18.40;99.90;;;;;;5054440;28;254873;-70
2023/08/15 06:09:39;;;;;;;16.13;8.07;;;18.40;99.90;;;;;;5076680;28;20044;-69
2023/08/15 06:12:06;;;;;;;17.83;7.82;;;18.40;99.90;;;;;;5058973;28;123498;-70
2023/08/15 06:14:33;;;;;;;16.50;7.13;;;18.40;99.90;;;;;;5064170;28;20052;-69
2023/08/15 06:16:59;;;;;;;16.02;7.00;;;18.30;99.90;;;;;;5055362;28;262436;-70
2023/08/15 06:19:25;;;;;;;14.77;6.75;;;18.40;99.90;;;;;;5058726;28;20056;-69
2023/08/15 06:21:52;;;;;;;17.00;6.88;;;18.50;99.90;;;;;;5054399;28;266346;-70
2023/08/15 06:24:18;;;;;;;14.45;6.43;;;18.60;99.90;;;;;;5059239;28;20409;-69
2023/08/15 06:26:44;;;;;;;15.50;6.00;;;18.60;99.90;;;;;;5034994;28;253184;-70
2023/08/15 06:29:10;;;;;;;15.70;6.00;;;18.50;99.90;;;;;;5082261;28;20494;-70
2023/08/15 06:31:36;;;;;;;15.52;6.00;;;18.50;99.90;;;;;;5058358;28;252996;-69
2023/08/15 06:34:02;;;;;;;14.60;5.80;;;18.80;99.90;;;;;;5074741;28;20049;-69
2023/08/15 06:36:29;;;;;;;14.10;5.18;;;19.30;99.90;;;;;;5070102;28;20797;-69
2023/08/15 06:38:55;;;;;;;12.63;5.10;;;19.80;99.90;;;;;;5063815;28;276093;-69
2023/08/15 06:41:21;;;;;;;13.57;4.93;;;20.10;99.90;;;;;;5069035;28;20059;-70
2023/08/15 06:43:47;;;;;;;11.75;4.60;;;20.50;99.90;;;;;;5057678;28;78348;-70
2023/08/15 06:46:15;;;;;;;14.13;4.63;;;20.80;99.90;;;;;;5063276;28;20041;-69
2023/08/15 06:48:41;;;;;;;15.30;4.60;;;20.90;99.90;;;;;;5058719;28;74578;-69
2023/08/15 06:51:07;;;;;;;12.82;4.53;;;21.10;99.90;;;;;;5063572;28;20071;-68
2023/08/15 06:53:33;;;;;;;13.45;4.50;;;21.20;99.90;;;;;;5042160;28;253755;-68
2023/08/15 06:56:00;;;;;;;15.05;4.10;;;21.40;99.90;;;;;;5070318;28;20039;-68
2023/08/15 06:58:26;;;;;;;14.55;4.35;;;21.60;99.90;;;;;;5048360;28;92038;-68
2023/08/15 07:00:52;;;;;;;14.75;4.15;;;21.50;99.90;;;;;;5061144;28;20064;-67
2023/08/15 07:03:18;;;;;;;12.38;3.72;;;21.40;99.90;;;;;;5060462;28;256061;-69
2023/08/15 07:05:45;;;;;;;16.02;3.60;;;21.50;99.90;;;;;;5065565;28;20115;-68
2023/08/15 07:08:13;;;;;;;13.57;3.72;;;21.50;99.90;;;;;;5056024;28;258664;-68
2023/08/15 07:10:39;;;;;;;11.30;3.53;;;21.50;99.90;;;;;;5066132;28;20507;-69
2023/08/15 07:13:06;;;;;;;13.60;3.78;;;21.80;99.90;;;;;;5057473;28;275078;-68
2023/08/15 07:15:32;;;;;;;11.80;3.63;;;22.10;99.90;;;;;;5058999;28;20052;-68
2023/08/15 07:17:58;;;;;;;13.93;3.38;;;22.20;99.90;;;;;;5057523;28;260816;-68
2023/08/15 07:20:26;;;;;;;16.40;3.72;;;22.30;99.90;;;;;;5060283;28;20143;-69
2023/08/15 07:22:53;;;;;;;14.25;3.53;;;22.50;99.90;;;;;;5057175;28;267794;-69
2023/08/15 07:25:20;;;;;;;13.90;3.47;;;22.70;99.90;;;;;;5069107;28;20408;-69
2023/08/15 07:27:46;;;;;;;12.57;2.92;;;22.90;99.90;;;;;;5059146;28;81390;-68
2023/08/15 07:30:13;;;;;;;13.82;2.72;;;23.20;99.90;;;;;;5069746;28;20053;-68
2023/08/15 07:32:39;;;;;;;10.60;2.50;;;23.20;99.90;;;;;;5057562;28;269980;-69
2023/08/15 07:35:07;;;;;;;12.73;2.70;;;23.30;99.90;;;;;;5068012;28;20041;-70
2023/08/15 07:37:33;;;;;;;10.57;2.50;;;23.00;99.90;;;;;;5055919;28;257340;-69
2023/08/15 07:40:09;;;;;;;12.88;2.90;;;22.70;99.90;;;;;;5052703;28;20053;-70
2023/08/15 07:42:36;;;;;;;10.63;2.70;;;22.80;99.90;;;;;;5050475;28;262497;-69
2023/08/15 07:45:02;;;;;;;11.50;2.55;;;22.60;99.90;;;;;;5058562;28;20712;-69
2023/08/15 07:47:29;;;;;;;9.60;2.33;;;22.70;99.90;;;;;;5038650;28;20634;-69
2023/08/15 07:50:18;;;;;;;13.30;2.83;;;22.80;99.90;;;;;;5071387;28;20057;-70
2023/08/15 07:52:44;;;;;;;11.57;2.30;;;22.90;99.90;;;;;;5012471;28;129067;-69
2023/08/15 07:55:11;;;;;;;10.25;2.50;;;23.20;99.90;;;;;;5056586;28;20561;-70
2023/08/15 07:57:37;;;;;;;10.55;2.20;;;23.40;99.90;;;;;;5051211;28;242572;-70
2023/08/15 08:00:05;;;;;;;12.65;2.67;;;23.80;99.90;;;;;;5061765;28;20060;-68
2023/08/15 08:02:31;;;;;;;11.32;2.30;;;23.70;99.90;;;;;;5048762;28;263047;-70
2023/08/15 08:04:57;;;;;;;9.07;2.17;;;23.60;99.90;;;;;;5075484;28;20052;-70
2023/08/15 08:07:23;;;;;;;10.95;2.13;;;23.70;99.90;;;;;;5057204;28;20438;-69
2023/08/15 08:09:49;;;;;;;12.35;2.78;;;23.80;99.90;;;;;;5069526;28;20049;-68
2023/08/15 08:12:15;;;;;;;10.57;2.28;;;23.50;99.90;;;;;;5054064;28;260036;-69
2023/08/15 08:14:41;;;;;;;10.40;2.20;;;23.40;99.90;;;;;;5068272;28;20051;-70
2023/08/15 08:17:08;;;;;;;11.88;2.40;;;23.30;99.90;;;;;;5051510;28;257301;-70
2023/08/15 08:19:34;;;;;;;10.00;2.05;;;23.20;99.90;;;;;;5064928;28;20052;-71
2023/08/15 08:22:00;;;;;;;12.25;2.08;;;23.10;99.90;;;;;;5057208;28;270769;-70
2023/08/15 08:24:26;;;;;;;12.63;2.20;;;23.30;99.90;;;;;;5078263;28;20045;-68
2023/08/15 08:26:52;;;;;;;10.98;2.17;;;23.80;99.90;;;;;;5045034;28;272282;-69
2023/08/15 08:29:19;;;;;;;10.65;2.28;;;24.30;99.90;;;;;;5081584;28;20056;-70
2023/08/15 08:31:45;;;;;;;8.73;1.77;;;24.90;99.90;;;;;;5051477;28;268767;-69
2023/08/15 08:34:14;;;;;;;11.98;2.20;;;25.10;99.90;;;;;;5073270;28;20044;-69
2023/08/15 08:36:41;;;;;;;10.70;2.17;;;25.20;99.90;;;;;;5039021;28;270819;-70
2023/08/15 08:39:09;;;;;;;8.93;1.65;;;25.20;99.90;;;;;;5072912;28;20040;-69
2023/08/15 08:41:36;;;;;;;9.80;2.25;;;25.40;99.90;;;;;;5060174;28;263516;-69
2023/08/15 08:44:03;;;;;;;10.38;2.13;;;25.40;99.90;;;;;;5076286;28;20041;-69
2023/08/15 08:46:29;;;;;;;11.00;1.92;;;25.30;99.90;;;;;;5060434;28;20052;-70
2023/08/15 08:48:57;;;;;;;8.10;1.60;;;25.40;99.90;;;;;;5071949;28;256664;-70
2023/08/15 08:51:27;;;;;;;9.90;2.00;;;25.50;99.90;;;;;;5069931;28;20064;-69
2023/08/15 08:53:54;;;;;;;8.57;1.60;;;25.90;99.90;;;;;;5035509;28;256878;-68
2023/08/15 08:56:25;;;;;;;9.95;1.83;;;26.20;99.90;;;;;;5065085;28;20040;-69
2023/08/15 08:59:05;;;;;;;12.93;1.90;;;26.40;99.70;;;;;;5048596;28;260397;-69
2023/08/15 09:01:32;;;;;;;11.65;1.83;;;26.60;99.10;;;;;;5059904;28;20053;-69
2023/08/15 09:03:59;;;;;;;10.85;1.90;;;27.10;99.90;;;;;;5070092;28;42155;-70
2023/08/15 09:06:26;;;;;;;8.45;1.50;;;27.50;99.10;;;;;;5065455;28;20052;-70
2023/08/15 09:08:53;;;;;;;9.57;1.75;;;27.40;99.00;;;;;;5052699;28;269504;-69
2023/08/15 09:11:20;;;;;;;11.02;1.70;;;27.80;98.30;;;;;;5067844;28;20495;-69
2023/08/15 09:13:50;;;;;;;9.60;1.70;;;27.80;98.20;;;;;;5056080;28;260240;-70
2023/08/15 09:16:16;;;;;;;8.95;1.70;;;27.50;97.40;;;;;;5067583;28;20499;-70
2023/08/15 09:18:43;;;;;;;9.48;1.90;;;26.40;98.10;;;;;;5065408;28;271050;-69
2023/08/15 09:21:12;;;;;;;10.15;2.05;;;25.60;98.90;;;;;;5070937;28;20048;-69
2023/08/15 09:23:41;;;;;;;9.80;1.70;;;25.40;99.00;;;;;;5052191;28;85625;-68
2023/08/15 09:26:14;;;;;;;9.68;1.85;;;24.80;99.70;;;;;;5067897;28;20547;-72
2023/08/15 09:28:41;;;;;;;9.75;1.80;;;25.10;99.90;;;;;;5060123;28;273068;-70
2023/08/15 09:31:10;;;;;;;8.90;2.00;;;24.90;99.60;;;;;;5064704;28;20045;-71
2023/08/15 09:33:40;;;;;;;8.80;1.90;;;24.70;99.80;;;;;;5054858;28;271604;-70
2023/08/15 09:36:09;;;;;;;9.85;2.10;;;24.60;99.90;;;;;;5067008;28;20491;-69
2023/08/15 09:38:36;;;;;;;8.63;2.05;;;24.30;99.90;;;;;;5065991;28;262528;-70
2023/08/15 09:41:03;;;;;;;7.93;1.80;;;24.10;99.90;;;;;;5066502;28;20083;-69
2023/08/15 09:43:30;;;;;;;9.50;1.83;;;23.80;99.90;;;;;;5056756;28;253331;-70
2023/08/15 09:46:00;;;;;;;8.68;1.60;;;23.60;99.90;;;;;;5070677;28;20064;-70
2023/08/15 09:48:29;;;;;;;10.83;2.20;;;23.50;99.90;;;;;;5067047;28;257656;-70
2023/08/15 09:50:57;;;;;;;12.10;1.98;;;23.50;99.90;;;;;;5066301;28;20053;-71
2023/08/15 09:53:24;;;;;;;8.43;1.90;;;23.40;99.90;;;;;;5041603;28;207740;-70
2023/08/15 09:55:51;;;;;;;8.80;1.75;;;23.50;99.90;;;;;;5069078;28;20051;-70
2023/08/15 09:58:18;;;;;;;8.90;2.03;;;23.60;99.90;;;;;;5058399;28;253840;-70
2023/08/15 10:00:50;;;;;;;10.32;1.90;;;23.70;99.90;;;;;;5062837;28;20048;-70
2023/08/15 10:03:28;;;;;;;8.93;1.90;;;23.80;99.90;;;;;;5060345;28;276562;-70
2023/08/15 10:05:56;;;;;;;9.02;1.90;;;23.70;99.90;;;;;;5066122;28;20052;-69
2023/08/15 10:08:23;;;;;;;9.75;2.10;;;23.60;99.90;;;;;;5068944;28;83326;-70
2023/08/15 10:10:51;;;;;;;10.27;1.85;;;23.50;99.90;;;;;;5069900;28;20059;-71
2023/08/15 10:13:20;;;;;;;8.27;1.90;;;24.00;99.90;;;;;;5065914;28;276500;-70
2023/08/15 10:15:47;;;;;;;10.43;2.00;;;24.90;99.90;;;;;;5066501;28;20044;-71
2023/08/15 10:18:13;;;;;;;8.27;2.10;;;25.20;99.90;;;;;;5064595;28;263445;-71
2023/08/15 10:20:40;;;;;;;8.80;1.83;;;25.90;99.50;;;;;;5073986;28;20060;-70
2023/08/15 10:23:10;;;;;;;11.18;2.28;;;26.50;98.50;;;;;;5064284;28;273073;-71
2023/08/15 10:25:38;;;;;;;;;;;27.00;98.40;;;;;;5070764;28;20044;-70
2023/08/15 10:28:10;;;;;;;7.38;2.00;;;27.30;97.40;;;;;;5064189;28;271909;-71
2023/08/15 10:30:42;;;;;;;8.45;1.80;;;27.60;97.80;;;;;;5069414;28;20052;-69
2023/08/15 10:33:11;;;;;;;10.80;1.90;;;28.20;97.20;;;;;;5064193;28;273942;-70
2023/08/15 10:35:37;;;;;;;7.70;2.00;;;28.70;97.10;;;;;;5070587;28;20064;-70
2023/08/15 10:38:14;;;;;;;9.40;1.92;;;29.10;96.80;;;;;;5055102;28;152960;-70
2023/08/15 10:40:41;;;;;;;9.40;1.80;;;28.90;95.80;;;;;;5067607;28;20044;-70
2023/08/15 10:43:11;;;;;;;10.38;1.73;;;28.30;95.90;;;;;;5058939;28;260471;-69
2023/08/15 10:45:39;;;;;;;10.75;2.08;;;27.40;96.80;;;;;;5068285;28;20064;-70
2023/08/15 10:48:06;;;;;;;8.48;1.77;;;26.60;97.40;;;;;;5052060;28;261829;-70
2023/08/15 10:50:33;;;;;;;9.43;1.90;;;26.00;97.90;;;;;;5057715;28;20048;-72
2023/08/15 10:53:06;;;;;;;13.55;2.63;;;26.00;98.30;;;;;;5039501;28;172089;-70
2023/08/15 10:55:37;;;;;;;10.18;2.20;;;25.70;98.50;;;;;;5069357;28;20056;-70
2023/08/15 10:58:08;;;;;;;8.63;2.30;;;25.40;98.90;;;;;;5055784;28;271813;-70
2023/08/15 11:00:36;;;;;;;8.65;2.13;;;25.10;99.30;;;;;;5062032;28;20549;-70
2023/08/15 11:03:03;;;;;;;9.93;2.30;;;25.00;99.40;;;;;;5057274;28;271890;-71
2023/08/15 11:05:42;;;;;;;10.52;2.42;;;25.30;99.40;;;;;;5072343;28;20591;-70
2023/08/15 11:08:12;;;;;;;8.95;2.33;;;25.40;99.40;;;;;;5052951;28;104739;-69
2023/08/15 11:10:42;;;;;;;;;;;25.60;99.30;;;;;;5069037;28;20048;-69
2023/08/15 11:13:08;;;;;;;11.05;2.70;;;25.60;99.10;;;;;;5059343;28;265381;-70
2023/08/15 11:15:34;;;;;;;11.50;2.20;;;26.10;99.00;;;;;;5060110;28;20063;-69
2023/08/15 11:18:01;;;;;;;8.30;2.00;;;26.30;98.30;;;;;;5060243;28;271644;-69
2023/08/15 11:20:31;;;;;;;10.20;2.33;;;26.50;98.20;;;;;;5070398;28;20056;-71
2023/08/15 11:22:58;;;;;;;10.43;2.28;;;26.50;98.20;;;;;;5061725;28;268026;-70
2023/08/15 11:25:25;;;;;;;9.52;2.10;;;26.30;98.50;;;;;;5069782;28;20063;-70
2023/08/15 11:27:51;;;;;;;11.50;1.90;;;26.40;98.40;;;;;;5061038;28;257969;-69
2023/08/15 11:30:18;;;;;;;7.15;1.80;;;26.60;98.20;;;;;;5074552;28;20515;-69
2023/08/15 11:32:46;;;;;;;9.20;1.83;;;26.60;97.60;;;;;;5056709;28;278219;-69
2023/08/15 11:35:12;;;;;;;10.40;2.42;;;26.50;98.10;;;;;;5075012;28;20071;-70
2023/08/15 11:37:41;;;;;;;9.32;2.03;;;26.40;98.30;;;;;;5058324;28;277317;-69
2023/08/15 11:40:08;;;;;;;8.27;1.92;;;26.40;98.20;;;;;;5070739;28;20048;-70
2023/08/15 11:42:35;;;;;;;7.28;1.85;;;26.20;98.30;;;;;;5061183;28;259464;-69
2023/08/15 11:45:22;;;;;;;8.57;2.10;;;25.90;98.10;;;;;;5073120;28;20121;-70
2023/08/15 11:47:56;;;;;;;7.47;1.80;;;25.70;98.40;;;;;;5052702;28;257539;-70
2023/08/15 11:50:33;;;;;;;7.50;1.85;;;25.50;98.50;;;;;;5064039;28;20525;-70
2023/08/15 11:53:00;;;;;;;8.68;1.80;;;25.40;98.50;;;;;;5038596;28;280156;-69
2023/08/15 11:55:33;;;;;;;8.75;1.80;;;25.20;98.70;;;;;;5055788;28;20052;-70
2023/08/15 11:57:59;;;;;;;8.68;2.00;;;25.30;99.00;;;;;;5055671;28;265216;-70
2023/08/15 12:00:27;;;;;;;8.82;2.20;;;25.60;99.00;;;;;;5060593;28;20056;-70
2023/08/15 12:02:54;;;;;;;10.25;1.85;;;25.60;99.00;;;;;;5066027;28;139033;-70
2023/08/15 12:05:21;;;;;;;9.43;1.92;;;25.80;98.70;;;;;;5072245;28;20414;-70
2023/08/15 12:07:48;;;;;;;7.68;1.98;;;26.30;98.50;;;;;;5054385;28;264725;-70
2023/08/15 12:10:16;;;;;;;8.45;1.90;;;26.70;98.20;;;;;;5067639;28;20052;-72
2023/08/15 12:12:44;;;;;;;8.48;2.00;;;26.60;98.20;;;;;;5043248;28;233210;-69
2023/08/15 12:15:13;;;;;;;6.95;1.58;;;26.50;97.80;;;;;;5060030;28;20045;-70
2023/08/15 12:17:40;;;;;;;7.18;1.65;;;26.60;98.10;;;;;;5058045;28;275167;-70
2023/08/15 12:20:09;;;;;;;7.80;1.50;;;26.40;97.90;;;;;;5070100;28;20044;-70
2023/08/15 12:22:36;;;;;;;7.47;1.58;;;26.40;97.40;;;;;;5056757;28;260662;-70
2023/08/15 12:25:02;;;;;;;9.02;1.70;;;26.40;97.30;;;;;;5059252;28;20075;-70
2023/08/15 12:27:29;;;;;;;6.47;1.45;;;27.00;98.10;;;;;;5051790;28;196261;-71
2023/08/15 12:29:55;;;;;;;7.45;1.52;;;27.30;97.80;;;;;;5062111;28;20690;-70
2023/08/15 12:32:21;;;;;;;5.97;1.40;;;27.40;97.40;;;;;;5051899;28;277720;-70
2023/08/15 12:34:48;;;;;;;6.72;1.52;;;26.80;96.90;;;;;;5064130;28;20511;-70